Time;durP1;ratioP1;P1;durP2;ratioP2;P2;SDS_P1;SDS_P2;PMS_P1;PMS_P2;Temp;Humidity;BMP_temperature;BMP_pressure;BME280_temperature;BME280_humidity;BME280_pressure;Samples;Min_cycle;Max_cycle;Signal;HPM_P1;HPM_P2
2022/09/08 00:00:13;;;;;;;;;;;14.80;99.90;;;;;;5099084;28;19931;-59
2022/09/08 00:02:41;;;;;;;;;;;14.80;99.90;;;;;;5104021;28;20279;-58
2022/09/08 00:05:10;;;;;;;;;;;14.70;99.90;;;;;;5107211;28;20395;-58
2022/09/08 00:07:38;;;;;;;;;;;14.70;99.90;;;;;;5110549;28;19924;-58
2022/09/08 00:10:05;;;;;;;;;;;14.70;99.90;;;;;;5107022;28;19943;-58
2022/09/08 00:12:37;;;;;;;;;;;14.70;99.90;;;;;;5106170;28;19924;-58
2022/09/08 00:15:05;;;;;;;;;;;14.70;99.90;;;;;;5103359;28;19924;-58
2022/09/08 00:17:32;;;;;;;;;;;14.70;99.90;;;;;;5092637;28;19924;-58
2022/09/08 00:20:00;;;;;;;;;;;14.70;99.90;;;;;;5071242;28;19930;-58
2022/09/08 00:22:27;;;;;;;;;;;14.70;99.90;;;;;;5103048;28;19939;-58
2022/09/08 00:24:54;;;;;;;;;;;14.70;99.90;;;;;;5094289;28;19924;-58
2022/09/08 00:27:22;;;;;;;;;;;14.70;99.90;;;;;;5090949;28;20295;-58
2022/09/08 00:29:49;;;;;;;;;;;14.60;99.90;;;;;;5108810;28;19924;-58
2022/09/08 00:32:19;;;;;;;;;;;14.60;99.90;;;;;;5100576;28;19955;-59
2022/09/08 00:34:47;;;;;;;;;;;14.60;99.90;;;;;;5118457;27;19927;-58
2022/09/08 00:37:14;;;;;;;;;;;14.60;99.90;;;;;;5093572;28;20398;-58
2022/09/08 00:39:42;;;;;;;;;;;14.60;99.90;;;;;;5111080;28;20382;-58
2022/09/08 00:42:09;;;;;;;;;;;14.50;99.90;;;;;;5110980;28;19931;-58
2022/09/08 00:44:48;;;;;;;;;;;14.50;99.90;;;;;;5118932;27;19927;-58
2022/09/08 00:47:24;;;;;;;;;;;14.50;99.90;;;;;;5086923;28;20294;-58
2022/09/08 00:49:54;;;;;;;;;;;14.40;99.90;;;;;;5098732;28;20272;-58
2022/09/08 00:52:22;;;;;;;;;;;14.40;99.90;;;;;;5108349;28;19924;-58
2022/09/08 00:54:49;;;;;;;;;;;14.40;99.90;;;;;;5117638;27;19931;-58
2022/09/08 00:57:17;;;;;;;;;;;14.40;99.90;;;;;;5111298;28;19939;-58
2022/09/08 00:59:46;;;;;;;;;;;14.30;99.90;;;;;;5107248;28;19931;-59
2022/09/08 01:02:21;;;;;;;;;;;14.30;99.90;;;;;;5101697;28;19935;-58
2022/09/08 01:04:50;;;;;;;;;;;14.30;99.90;;;;;;5106681;27;19936;-59
2022/09/08 01:13:26;;;;;;;;;;;14.30;99.90;;;;;;5111518;27;19930;-58
2022/09/08 01:15:55;;;;;;;;;;;14.30;99.90;;;;;;5103795;28;19932;-59
2022/09/08 01:18:23;;;;;;;;;;;14.30;99.90;;;;;;5102599;28;19938;-60
2022/09/08 01:21:08;;;;;;;;;;;14.30;99.90;;;;;;5104678;28;19931;-59
2022/09/08 01:23:55;;;;;;;;;;;14.20;99.90;;;;;;5110037;27;19935;-58
2022/09/08 01:26:50;;;;;;;;;;;14.20;99.90;;;;;;5091952;28;19935;-58
2022/09/08 01:29:19;;;;;;;;;;;14.20;99.90;;;;;;5069465;28;20433;-58
2022/09/08 01:31:47;;;;;;;;;;;14.20;99.90;;;;;;5099565;27;19924;-58
2022/09/08 01:34:15;;;;;;;;;;;14.20;99.90;;;;;;5113885;28;19935;-58
2022/09/08 01:36:42;;;;;;;;;;;14.20;99.90;;;;;;5076829;27;19924;-58
2022/09/08 01:39:09;;;;;;;;;;;14.20;99.90;;;;;;5121650;27;19927;-58
2022/09/08 01:41:37;;;;;;;;;;;14.20;99.90;;;;;;5094808;28;19958;-58
2022/09/08 01:44:04;;;;;;;;;;;14.20;99.90;;;;;;5109795;28;19924;-58
2022/09/08 01:46:32;;;;;;;;;;;14.20;99.90;;;;;;5112422;28;19931;-59
2022/09/08 01:48:59;;;;;;;;;;;14.20;99.90;;;;;;5113754;28;19950;-58
2022/09/08 01:51:27;;;;;;;;;;;14.10;99.90;;;;;;5112436;28;20391;-58
2022/09/08 01:53:54;;;;;;;;;;;14.10;99.90;;;;;;5113097;28;19924;-58
2022/09/08 01:56:21;;;;;;;;;;;14.10;99.90;;;;;;5113562;28;19924;-58
2022/09/08 01:58:49;;;;;;;;;;;14.10;99.90;;;;;;5103880;28;20399;-58
2022/09/08 02:01:16;;;;;;;;;;;14.10;99.90;;;;;;5075196;28;19936;-58
2022/09/08 02:03:44;;;;;;;;;;;14.10;99.90;;;;;;5093178;28;19924;-58
2022/09/08 02:06:11;;;;;;;;;;;14.10;99.90;;;;;;5093882;28;19939;-58
2022/09/08 02:08:39;;;;;;;;;;;14.10;99.90;;;;;;5104451;28;19924;-58
2022/09/08 02:11:06;;;;;;;;;;;14.10;99.90;;;;;;5112509;28;20383;-59
2022/09/08 02:13:33;;;;;;;;;;;14.10;99.90;;;;;;5112142;28;19924;-58
2022/09/08 02:16:02;;;;;;;;;;;14.10;99.90;;;;;;5113236;28;19923;-59
2022/09/08 02:18:31;;;;;;;;;;;14.10;99.90;;;;;;5113025;28;20315;-58
2022/09/08 02:21:02;;;;;;;;;;;14.00;99.90;;;;;;5112400;28;19928;-58
2022/09/08 02:23:30;;;;;;;;;;;14.00;99.90;;;;;;5094390;28;19924;-58
2022/09/08 02:25:57;;;;;;;;;;;14.00;99.90;;;;;;5112027;28;19931;-58
2022/09/08 02:28:25;;;;;;;;;;;14.00;99.90;;;;;;5111375;28;19946;-59
2022/09/08 02:30:56;;;;;;;;;;;14.00;99.90;;;;;;5110986;28;19930;-58
2022/09/08 02:33:24;;;;;;;;;;;14.00;99.90;;;;;;5112941;28;19923;-58
2022/09/08 02:35:52;;;;;;;;;;;14.00;99.90;;;;;;5112945;28;19924;-58
2022/09/08 02:38:20;;;;;;;;;;;13.90;99.90;;;;;;5127050;27;19928;-59
2022/09/08 02:40:47;;;;;;;;;;;13.90;99.90;;;;;;5104713;28;19931;-58
2022/09/08 02:43:15;;;;;;;;;;;13.90;99.90;;;;;;5109914;28;19935;-58
2022/09/08 02:45:43;;;;;;;;;;;13.90;99.90;;;;;;5111589;28;20519;-59
2022/09/08 02:48:10;;;;;;;;;;;13.90;99.90;;;;;;5112493;28;19924;-58
2022/09/08 02:50:38;;;;;;;;;;;13.80;99.90;;;;;;5112742;28;19927;-58
2022/09/08 02:53:06;;;;;;;;;;;13.80;99.90;;;;;;5111928;28;19924;-58
2022/09/08 02:55:37;;;;;;;;;;;13.80;99.90;;;;;;5111183;28;20291;-58
2022/09/08 02:58:06;;;;;;;;;;;13.80;99.90;;;;;;5112693;28;19939;-59
2022/09/08 03:00:38;;;;;;;;;;;13.80;99.90;;;;;;5112561;28;20298;-58
2022/09/08 03:03:06;;;;;;;;;;;13.80;99.90;;;;;;5112584;28;19930;-59
2022/09/08 03:05:34;;;;;;;;;;;13.80;99.90;;;;;;5112509;28;20291;-58
2022/09/08 03:08:03;;;;;;;;;;;13.80;99.90;;;;;;5110164;28;19931;-58
2022/09/08 03:10:31;;;;;;;;;;;13.80;99.90;;;;;;5110161;28;19927;-58
2022/09/08 03:12:58;;;;;;;;;;;13.80;99.90;;;;;;5111207;28;20409;-59
2022/09/08 03:15:27;;;;;;;;;;;13.70;99.90;;;;;;5111200;28;19923;-58
2022/09/08 03:17:55;;;;;;;;;;;13.70;99.90;;;;;;5111157;28;19931;-58
2022/09/08 03:20:22;;;;;;;;;;;13.70;99.90;;;;;;5092687;28;19927;-58
2022/09/08 03:22:50;;;;;;;;;;;13.70;99.90;;;;;;5112178;28;19931;-58
2022/09/08 03:25:18;;;;;;;;;;;13.70;99.90;;;;;;5110909;28;20413;-58
2022/09/08 03:27:45;;;;;;;;;;;13.70;99.90;;;;;;5111373;28;19924;-58
2022/09/08 03:30:13;;;;;;;;;;;13.70;99.90;;;;;;5111170;28;20382;-58
2022/09/08 03:32:41;;;;;;;;;;;13.70;99.90;;;;;;5110753;28;19931;-58
2022/09/08 03:35:09;;;;;;;;;;;13.70;99.90;;;;;;5110929;28;19924;-58
2022/09/08 03:37:40;;;;;;;;;;;13.70;99.90;;;;;;5120266;28;19923;-58
2022/09/08 03:40:09;;;;;;;;;;;13.60;99.90;;;;;;5119305;28;19928;-58
2022/09/08 03:42:39;;;;;;;;;;;13.60;99.90;;;;;;5111033;28;20283;-58
2022/09/08 03:45:08;;;;;;;;;;;13.70;99.90;;;;;;5110583;28;19923;-58
2022/09/08 03:47:37;;;;;;;;;;;13.70;99.90;;;;;;5110702;28;20275;-59
2022/09/08 03:50:05;;;;;;;;;;;13.70;99.90;;;;;;5110014;28;20287;-58
2022/09/08 03:52:33;;;;;;;;;;;13.70;99.90;;;;;;5093864;28;20275;-58
2022/09/08 03:55:00;;;;;;;;;;;13.70;99.90;;;;;;5110879;28;20414;-60
2022/09/08 03:57:29;;;;;;;;;;;13.80;99.90;;;;;;5092001;28;19927;-59
2022/09/08 03:59:57;;;;;;;;;;;13.70;99.90;;;;;;5112009;28;19924;-58
2022/09/08 04:02:25;;;;;;;;;;;13.80;99.90;;;;;;5114934;28;19924;-58
2022/09/08 04:04:54;;;;;;;;;;;13.70;99.90;;;;;;5113664;28;19930;-58
2022/09/08 04:07:22;;;;;;;;;;;13.70;99.90;;;;;;5120525;27;20371;-58
2022/09/08 04:09:49;;;;;;;;;;;13.70;99.90;;;;;;5115591;27;20469;-59
2022/09/08 04:12:17;;;;;;;;;;;13.60;99.90;;;;;;5114653;28;19931;-58
2022/09/08 04:14:46;;;;;;;;;;;13.70;99.90;;;;;;5096582;28;20294;-58
2022/09/08 04:17:14;;;;;;;;;;;13.60;99.90;;;;;;5115340;28;19955;-57
2022/09/08 04:19:41;;;;;;;;;;;13.60;99.90;;;;;;5113275;28;20291;-58
2022/09/08 04:22:14;;;;;;;;;;;13.40;99.90;;;;;;5115703;28;19927;-57
2022/09/08 04:24:41;;;;;;;;;;;13.60;99.90;;;;;;5115358;28;20278;-58
2022/09/08 04:27:09;;;;;;;;;;;13.60;99.90;;;;;;5114464;28;20475;-58
2022/09/08 04:29:36;;;;;;;;;;;13.60;99.90;;;;;;5096116;28;19924;-58
2022/09/08 04:32:04;;;;;;;;;;;13.60;99.90;;;;;;5115371;28;20401;-57
2022/09/08 04:34:31;;;;;;;;;;;13.50;99.90;;;;;;5115344;28;19923;-57
2022/09/08 04:36:59;;;;;;;;;;;13.50;99.90;;;;;;5117051;27;19928;-57
2022/09/08 04:39:27;;;;;;;;;;;13.50;99.90;;;;;;5136086;27;19923;-57
2022/09/08 04:41:54;;;;;;;;;;;13.50;99.90;;;;;;5116454;27;20379;-58
2022/09/08 04:44:22;;;;;;;;;;;13.40;99.90;;;;;;5112946;28;19927;-58
2022/09/08 04:46:49;;;;;;;;;;;13.40;99.90;;;;;;5114943;28;19924;-57
2022/09/08 04:49:17;;;;;;;;;;;13.40;99.90;;;;;;5072915;28;19931;-58
2022/09/08 04:51:44;;;;;;;;;;;13.40;99.90;;;;;;5092182;28;19931;-57
2022/09/08 04:54:11;;;;;;;;;;;13.40;99.90;;;;;;5110206;28;20279;-57
2022/09/08 04:56:39;;;;;;;;;;;13.40;99.90;;;;;;5109824;28;20409;-57
2022/09/08 04:59:06;;;;;;;;;;;13.30;99.90;;;;;;5110381;28;19955;-57
2022/09/08 05:01:37;;;;;;;;;;;13.30;99.90;;;;;;5109194;28;19931;-57
2022/09/08 05:04:05;;;;;;;;;;;13.30;99.90;;;;;;5087296;28;20532;-58
2022/09/08 05:06:33;;;;;;;;;;;13.20;99.90;;;;;;5087497;28;19943;-58
2022/09/08 05:09:02;;;;;;;;;;;13.30;99.90;;;;;;5110230;27;19928;-58
2022/09/08 05:11:31;;;;;;;;;;;13.20;99.90;;;;;;5107379;28;19931;-58
2022/09/08 05:13:59;;;;;;;;;;;13.20;99.90;;;;;;5108430;28;19928;-58
2022/09/08 05:16:27;;;;;;;;;;;13.20;99.90;;;;;;5111077;28;20827;-58
2022/09/08 05:18:56;;;;;;;;;;;13.20;99.90;;;;;;5110569;28;19927;-58
2022/09/08 05:21:24;;;;;;;;;;;13.20;99.90;;;;;;5099891;28;19931;-57
2022/09/08 05:23:53;;;;;;;;;;;13.20;99.90;;;;;;5102282;27;19930;-58
2022/09/08 05:26:21;;;;;;;;;;;13.20;99.90;;;;;;5109951;27;19923;-58
2022/09/08 05:28:48;;;;;;;;;;;13.20;99.90;;;;;;5109622;28;20702;-58
2022/09/08 05:31:18;;;;;;;;;;;13.20;99.90;;;;;;5091378;28;19931;-58
2022/09/08 05:33:45;;;;;;;;;;;13.20;99.90;;;;;;5110277;27;19928;-58
2022/09/08 05:36:17;;;;;;;;;;;13.20;99.90;;;;;;5102193;28;19924;-58
2022/09/08 05:38:45;;;;;;;;;;;13.30;99.90;;;;;;5092573;28;20417;-58
2022/09/08 05:41:13;;;;;;;;;;;13.20;99.90;;;;;;5107310;28;20371;-58
2022/09/08 05:43:40;;;;;;;;;;;13.30;99.90;;;;;;5106773;27;19924;-58
2022/09/08 05:46:09;;;;;;;;;;;13.30;99.90;;;;;;5105952;28;20406;-58
2022/09/08 05:48:42;;;;;;;;;;;13.30;99.90;;;;;;5090062;28;19930;-58
2022/09/08 05:51:10;;;;;;;;;;;13.40;99.90;;;;;;5103384;28;19924;-58
2022/09/08 05:53:38;;;;;;;;;;;13.40;99.90;;;;;;5108401;28;19923;-58
2022/09/08 05:56:06;;;;;;;;;;;13.40;99.90;;;;;;5109587;28;19959;-58
2022/09/08 05:58:34;;;;;;;;;;;13.40;99.90;;;;;;5109317;28;19927;-58
2022/09/08 06:01:02;;;;;;;;;;;13.40;99.90;;;;;;5106826;28;19927;-58
2022/09/08 06:03:29;;;;;;;;;;;13.50;99.90;;;;;;5088537;28;19950;-58
2022/09/08 06:06:02;;;;;;;;;;;13.50;99.90;;;;;;5084451;28;19928;-58
2022/09/08 06:08:29;;;;;;;;;;;13.50;99.90;;;;;;5103801;27;19931;-57
2022/09/08 06:10:56;;;;;;;;;;;13.50;99.90;;;;;;5108481;28;19924;-57
2022/09/08 06:13:24;;;;;;;;;;;13.60;99.90;;;;;;5109757;28;19931;-57
2022/09/08 06:15:51;;;;;;;;;;;13.60;99.90;;;;;;5091264;28;20386;-57
2022/09/08 06:18:19;;;;;;;;;;;13.60;99.90;;;;;;5107382;28;19928;-57
2022/09/08 06:20:46;;;;;;;;;;;13.60;99.90;;;;;;5089902;28;20185;-57
2022/09/08 06:23:14;;;;;;;;;;;13.60;99.90;;;;;;5099165;28;19927;-57
2022/09/08 06:25:43;;;;;;;;;;;13.60;99.90;;;;;;5108380;28;19924;-58
2022/09/08 06:28:22;;;;;;;;;;;13.60;99.90;;;;;;5109741;28;19928;-58
2022/09/08 06:30:50;;;;;;;;;;;13.60;99.90;;;;;;5107967;28;19931;-58
2022/09/08 06:33:29;;;;;;;;;;;13.60;99.90;;;;;;5117390;27;19923;-59
2022/09/08 06:36:01;;;;;;;;;;;13.60;99.90;;;;;;5107694;27;19928;-58
2022/09/08 06:38:37;;;;;;;;;;;13.60;99.90;;;;;;5097597;27;19928;-57
2022/09/08 06:41:10;;;;;;;;;;;13.60;99.90;;;;;;5088427;28;19931;-58
2022/09/08 06:43:50;;;;;;;;;;;13.70;99.90;;;;;;5103300;28;20418;-59
2022/09/08 06:46:22;;;;;;;;;;;13.70;99.90;;;;;;5087620;28;20283;-59
2022/09/08 06:48:51;;;;;;;;;;;13.80;99.90;;;;;;5091968;28;19935;-58
2022/09/08 06:51:38;;;;;;;;;;;13.90;99.90;;;;;;5095075;28;19931;-59
2022/09/08 06:54:06;;;;;;;;;;;14.00;99.90;;;;;;5102821;28;19931;-62
2022/09/08 06:56:47;;;;;;;;;;;14.10;99.90;;;;;;5089979;28;19924;-59
2022/09/08 06:59:57;;;;;;;;;;;14.10;99.90;;;;;;5073964;28;20398;-59
2022/09/08 07:02:37;;;;;;;;;;;14.20;99.90;;;;;;5104161;28;19931;-58
2022/09/08 07:05:31;;;;;;;;;;;14.20;99.90;;;;;;5085840;28;19924;-59
2022/09/08 07:08:07;;;;;;;;;;;14.30;99.90;;;;;;5102087;27;19923;-58
2022/09/08 07:10:49;;;;;;;;;;;14.30;99.90;;;;;;5108232;28;19924;-58
2022/09/08 07:13:34;;;;;;;;;;;14.40;99.90;;;;;;5094835;28;19931;-59
2022/09/08 07:16:13;;;;;;;;;;;14.50;99.90;;;;;;5104501;28;19935;-60
2022/09/08 07:18:45;;;;;;;;;;;14.60;99.90;;;;;;5105124;27;19927;-60
2022/09/08 07:21:28;;;;;;;;;;;14.60;99.90;;;;;;5106888;28;19934;-60
2022/09/08 07:23:57;;;;;;;;;;;14.70;99.90;;;;;;5076129;28;19924;-60
2022/09/08 07:26:37;;;;;;;;;;;14.70;99.90;;;;;;5088712;28;20304;-60
2022/09/08 07:29:12;;;;;;;;;;;14.70;99.90;;;;;;5104023;28;19931;-59
2022/09/08 07:31:41;;;;;;;;;;;14.70;99.90;;;;;;5107217;28;19924;-59
2022/09/08 07:34:14;;;;;;;;;;;14.70;99.90;;;;;;5100730;28;19931;-59
2022/09/08 07:36:50;;;;;;;;;;;14.80;99.90;;;;;;5109875;28;19935;-59
2022/09/08 07:39:20;;;;;;;;;;;14.20;99.90;;;;;;5092732;28;19931;-59
2022/09/08 07:41:50;;;;;;;;;;;14.80;99.90;;;;;;5094531;28;20402;-58
2022/09/08 07:44:18;;;;;;;;;;;14.80;99.90;;;;;;5089291;28;19927;-59
2022/09/08 07:46:48;;;;;;;;;;;14.90;99.90;;;;;;5093346;28;19924;-58
2022/09/08 07:49:27;;;;;;;;;;;14.90;99.90;;;;;;5110358;28;19924;-59
2022/09/08 07:51:58;;;;;;;;;;;15.00;99.90;;;;;;5112670;27;19924;-59
2022/09/08 07:54:46;;;;;;;;;;;15.00;99.90;;;;;;5108266;28;19927;-58
2022/09/08 07:57:17;;;;;;;;;;;15.00;99.90;;;;;;5111836;27;19946;-59
2022/09/08 08:00:07;;;;;;;;;;;15.10;99.90;;;;;;5111656;28;20310;-59
2022/09/08 08:02:38;;;;;;;;;;;15.20;99.90;;;;;;5097414;27;19923;-59
2022/09/08 08:05:15;;;;;;;;;;;15.20;99.90;;;;;;5070495;28;20492;-58
2022/09/08 08:08:03;;;;;;;;;;;15.30;99.90;;;;;;5099405;27;19924;-59
2022/09/08 08:10:36;;;;;;;;;;;15.40;99.90;;;;;;5112077;28;19931;-58
2022/09/08 08:13:10;;;;;;;;;;;15.40;99.90;;;;;;5110547;28;20091;-58
2022/09/08 08:15:52;;;;;;;;;;;15.50;99.90;;;;;;5110501;28;19939;-59
2022/09/08 08:18:34;;;;;;;;;;;15.60;99.90;;;;;;5093783;28;19923;-58
2022/09/08 08:21:08;;;;;;;;;;;15.70;99.90;;;;;;5092242;28;19928;-59
2022/09/08 08:23:55;;;;;;;;;;;15.80;99.90;;;;;;5105314;28;19947;-58
2022/09/08 08:26:22;;;;;;;;;;;15.90;99.90;;;;;;5094529;28;19931;-59
2022/09/08 08:28:57;;;;;;;;;;;16.00;99.90;;;;;;5087860;28;19924;-59
2022/09/08 08:31:25;;;;;;;;;;;16.10;99.90;;;;;;5110845;28;19924;-58
2022/09/08 08:34:15;;;;;;;;;;;16.10;99.90;;;;;;5122634;27;19931;-58
2022/09/08 08:36:45;;;;;;;;;;;16.30;99.90;;;;;;5121929;27;20392;-59
2022/09/08 08:39:18;;;;;;;;;;;16.30;99.90;;;;;;5107982;27;19924;-58
2022/09/08 08:41:46;;;;;;;;;;;16.30;99.90;;;;;;5111046;28;19923;-59
2022/09/08 08:44:39;;;;;;;;;;;16.30;99.90;;;;;;5107593;28;19931;-59
2022/09/08 08:47:16;;;;;;;;;;;16.40;99.90;;;;;;5088353;28;20390;-58
2022/09/08 08:49:49;;;;;;;;;;;16.50;99.90;;;;;;5091623;28;19935;-58
2022/09/08 08:52:26;;;;;;;;;;;16.50;99.90;;;;;;5109047;27;19924;-60
2022/09/08 08:55:08;;;;;;;;;;;16.60;99.90;;;;;;5080736;28;19939;-59
2022/09/08 08:57:36;;;;;;;;;;;16.60;99.90;;;;;;5097357;28;19931;-60
2022/09/08 09:00:09;;;;;;;;;;;16.60;99.90;;;;;;5104034;28;19950;-59
2022/09/08 09:02:51;;;;;;;;;;;16.70;99.90;;;;;;5109487;27;19923;-60
2022/09/08 09:05:38;;;;;;;;;;;16.60;99.90;;;;;;5095211;28;19931;-60
2022/09/08 09:08:14;;;;;;;;;;;16.70;99.90;;;;;;5108594;27;19924;-60
2022/09/08 09:10:48;;;;;;;;;;;16.70;99.90;;;;;;5089321;28;19923;-58
2022/09/08 09:13:31;;;;;;;;;;;16.70;99.90;;;;;;5117004;27;19924;-58
2022/09/08 09:16:21;;;;;;;;;;;16.70;99.90;;;;;;5085666;28;19931;-60
2022/09/08 09:18:55;;;;;;;;;;;16.80;99.90;;;;;;5096100;28;19927;-59
2022/09/08 09:21:41;;;;;;;;;;;16.80;99.90;;;;;;5084772;28;19924;-60
2022/09/08 09:24:18;;;;;;;;;;;16.90;99.90;;;;;;5094830;28;19939;-58
2022/09/08 09:26:47;;;;;;;;;;;16.90;99.90;;;;;;5102288;28;19928;-59
2022/09/08 09:29:19;;;;;;;;;;;16.90;99.90;;;;;;5105122;28;19927;-58
2022/09/08 09:32:01;;;;;;;;;;;17.00;99.90;;;;;;5098063;28;19928;-58
2022/09/08 09:34:49;;;;;;;;;;;17.00;99.90;;;;;;5107503;27;19924;-59
2022/09/08 09:37:23;;;;;;;;;;;17.00;99.90;;;;;;5102325;27;19923;-59
2022/09/08 09:40:09;;;;;;;;;;;17.10;99.90;;;;;;5077612;28;19924;-60
2022/09/08 09:42:43;;;;;;;;;;;17.10;99.90;;;;;;5095996;28;19943;-60
2022/09/08 09:45:30;;;;;;;;;;;17.00;99.90;;;;;;5110585;28;19924;-60
2022/09/08 09:48:23;;;;;;;;;;;17.00;99.90;;;;;;5110722;28;19931;-60
2022/09/08 09:50:51;;;;;;;;;;;17.00;99.90;;;;;;5061857;28;19924;-59
2022/09/08 09:53:35;;;;;;;;;;;17.00;99.90;;;;;;5110514;28;19928;-59
2022/09/08 09:56:05;;;;;;;;;;;17.00;99.90;;;;;;5090266;28;19935;-61
2022/09/08 09:58:33;;;;;;;;;;;17.00;99.90;;;;;;5101018;28;20054;-60
2022/09/08 10:01:00;;;;;;;;;;;17.00;99.90;;;;;;5092494;28;19924;-60
2022/09/08 10:03:34;;;;;;;;;;;17.00;99.90;;;;;;5110020;28;19931;-58
2022/09/08 10:06:25;;;;;;;;;;;17.00;99.90;;;;;;5092421;28;19924;-59
2022/09/08 10:08:59;;;;;;;;;;;17.00;99.90;;;;;;5100386;27;19934;-58
2022/09/08 10:11:27;;;;;;;;;;;16.90;99.90;;;;;;5090267;28;20361;-58
2022/09/08 10:13:57;;;;;;;;;;;16.90;99.90;;;;;;5106247;28;20282;-60
2022/09/08 10:16:43;;;;;;;;;;;16.80;99.90;;;;;;5091690;28;20520;-60
2022/09/08 10:19:26;;;;;;;;;;;16.90;99.90;;;;;;5109964;28;19923;-60
2022/09/08 10:21:53;;;;;;;;;;;17.00;99.90;;;;;;5110119;28;19930;-60
2022/09/08 10:24:35;;;;;;;;;;;17.20;99.90;;;;;;5081989;28;19931;-60
2022/09/08 10:27:15;;;;;;;;;;;17.40;99.90;;;;;;5071864;28;19924;-60
2022/09/08 10:30:06;;;;;;;;;;;17.70;99.90;;;;;;5089855;28;19932;-59
2022/09/08 10:32:52;;;;;;;;;;;17.80;99.90;;;;;;5081750;27;19923;-59
2022/09/08 10:35:37;;;;;;;;;;;18.00;99.90;;;;;;5089533;28;19924;-60
2022/09/08 10:38:22;;;;;;;;;;;18.00;99.90;;;;;;5104945;27;19924;-61
2022/09/08 10:40:56;;;;;;;;;;;18.00;99.90;;;;;;5073672;28;20323;-59
2022/09/08 10:43:27;;;;;;;;;;;18.00;99.90;;;;;;5100929;28;20750;-59
2022/09/08 10:46:01;;;;;;;;;;;18.40;99.90;;;;;;5089762;28;20375;-59
2022/09/08 10:48:48;;;;;;;;;;;18.60;99.90;;;;;;5100511;27;20299;-59
2022/09/08 10:51:27;;;;;;;;;;;18.60;99.90;;;;;;5090906;28;19934;-59
2022/09/08 10:53:58;;;;;;;;;;;18.60;99.90;;;;;;5096587;28;19935;-60
2022/09/08 10:56:28;;;;;;;;;;;18.60;99.90;;;;;;5089241;28;20504;-60
2022/09/08 10:58:58;;;;;;;;;;;18.60;99.90;;;;;;5085682;28;20398;-60
2022/09/08 11:01:45;;;;;;;;;;;18.60;99.90;;;;;;5109727;28;19924;-60
2022/09/08 11:04:17;;;;;;;;;;;18.70;99.90;;;;;;5114795;27;19924;-61
2022/09/08 11:06:44;;;;;;;;;;;18.70;99.90;;;;;;5109490;27;19931;-59
2022/09/08 11:09:20;;;;;;;;;;;18.60;99.90;;;;;;5108322;27;19930;-59
2022/09/08 11:12:06;;;;;;;;;;;18.50;99.90;;;;;;5101178;28;19923;-58
2022/09/08 11:14:34;;;;;;;;;;;18.60;99.90;;;;;;5094953;28;19935;-59
2022/09/08 11:17:11;;;;;;;;;;;18.70;99.90;;;;;;5089204;28;19939;-59
2022/09/08 11:19:42;;;;;;;;;;;18.80;99.90;;;;;;5077580;28;19935;-59
2022/09/08 11:22:24;;;;;;;;;;;18.80;99.90;;;;;;5088428;28;20451;-60
2022/09/08 11:25:04;;;;;;;;;;;18.80;99.90;;;;;;5106531;28;19928;-59
2022/09/08 11:27:40;;;;;;;;;;;18.80;99.90;;;;;;5095825;28;19928;-61
2022/09/08 11:30:07;;;;;;;;;;;19.00;99.90;;;;;;5096355;28;19931;-60
2022/09/08 11:32:37;;;;;;;;;;;19.30;99.90;;;;;;5107405;28;19931;-61
2022/09/08 11:35:18;;;;;;;;;;;19.70;99.90;;;;;;5129341;28;19993;-61
2022/09/08 11:37:48;;;;;;;;;;;19.90;99.90;;;;;;5115501;28;20298;-60
2022/09/08 11:40:29;;;;;;;;;;;20.10;99.90;;;;;;5089838;28;19924;-60
2022/09/08 11:42:56;;;;;;;;;;;20.20;99.90;;;;;;5104955;28;20291;-60
2022/09/08 11:45:35;;;;;;;;;;;20.40;99.90;;;;;;5116811;28;20386;-62
2022/09/08 11:48:08;;;;;;;;;;;20.50;99.90;;;;;;5101662;28;19938;-61
2022/09/08 11:50:37;;;;;;;;;;;20.40;99.90;;;;;;5105517;28;20136;-61
2022/09/08 11:53:18;;;;;;;;;;;20.30;99.90;;;;;;5101756;28;19934;-60
2022/09/08 11:56:05;;;;;;;;;;;20.10;99.90;;;;;;5088190;28;20374;-60
2022/09/08 11:58:35;;;;;;;;;;;19.90;99.90;;;;;;5115887;28;19939;-60
2022/09/08 12:01:09;;;;;;;;;;;19.70;99.90;;;;;;5105595;28;19948;-61
2022/09/08 12:03:36;;;;;;;;;;;19.70;99.90;;;;;;5098166;28;19931;-60
2022/09/08 12:06:06;;;;;;;;;;;19.70;99.90;;;;;;5098147;28;19924;-60
2022/09/08 12:09:09;;;;;;;;;;;20.10;99.90;;;;;;5102744;28;19927;-60
2022/09/08 12:11:45;;;;;;;;;;;20.50;99.90;;;;;;5099414;28;19931;-61
2022/09/08 12:14:31;;;;;;;;;;;20.60;99.90;;;;;;5111150;28;19928;-61
2022/09/08 12:17:02;;;;;;;;;;;20.50;99.90;;;;;;5090052;28;19925;-62
2022/09/08 12:19:41;;;;;;;;;;;20.30;99.90;;;;;;5089520;28;19928;-61
2022/09/08 12:22:15;;;;;;;;;;;20.20;99.90;;;;;;5093029;27;19931;-62
2022/09/08 12:24:55;;;;;;;;;;;20.10;99.90;;;;;;5132646;27;19927;-61
2022/09/08 12:28:02;;;;;;;;;;;20.10;99.90;;;;;;5124261;27;19923;-60
2022/09/08 12:30:44;;;;;;;;;;;20.10;99.90;;;;;;5117529;27;19928;-63
2022/09/08 12:33:12;;;;;;;;;;;19.90;99.90;;;;;;5111947;28;19932;-62
2022/09/08 12:35:45;;;;;;;;;;;19.70;99.90;;;;;;5102655;28;19924;-63
2022/09/08 12:38:20;;;;;;;;;;;19.60;99.90;;;;;;5108741;27;19932;-62
2022/09/08 12:41:00;;;;;;;;;;;19.50;99.90;;;;;;5102993;28;19924;-62
2022/09/08 12:43:48;;;;;;;;;;;19.50;99.90;;;;;;5106090;27;20398;-61
2022/09/08 12:46:41;;;;;;;;;;;19.50;99.90;;;;;;5111174;27;19924;-61
2022/09/08 12:49:22;;;;;;;;;;;19.50;99.90;;;;;;5111701;28;19931;-62
2022/09/08 12:51:54;;;;;;;;;;;19.50;99.90;;;;;;5110627;28;19938;-61
2022/09/08 12:54:34;;;;;;;;;;;19.70;99.90;;;;;;5098826;28;19923;-62
2022/09/08 12:57:04;;;;;;;;;;;20.20;99.90;;;;;;5111849;28;20196;-63
2022/09/08 12:59:48;;;;;;;;;;;21.10;99.90;;;;;;5108585;28;20378;-62
2022/09/08 13:02:27;;;;;;;;;;;21.80;99.90;;;;;;5108176;28;19931;-62
2022/09/08 13:05:14;;;;;;;;;;;22.00;99.90;;;;;;5106449;28;19942;-62
2022/09/08 13:07:54;;;;;;;;;;;21.90;99.90;;;;;;5112234;27;19932;-61
2022/09/08 13:10:25;;;;;;;;;;;21.90;99.90;;;;;;5101872;28;19935;-62
2022/09/08 13:13:00;;;;;;;;;;;22.10;99.90;;;;;;5059673;28;19935;-64
2022/09/08 13:15:35;;;;;;;;;;;22.30;99.90;;;;;;5107158;28;20275;-62
2022/09/08 13:18:11;;;;;;;;;;;22.30;99.90;;;;;;5085919;28;20471;-62
2022/09/08 13:20:40;;;;;;;;;;;22.20;99.90;;;;;;5082109;28;19925;-62
2022/09/08 13:23:26;;;;;;;;;;;22.10;99.90;;;;;;5074809;28;19924;-62
2022/09/08 13:26:06;;;;;;;;;;;21.90;99.90;;;;;;5077791;28;19925;-62
2022/09/08 13:28:33;;;;;;;;;;;21.80;99.90;;;;;;5073318;28;19932;-62
2022/09/08 13:31:12;;;;;;;;;;;21.80;99.90;;;;;;5083480;28;19924;-62
2022/09/08 13:33:52;;;;;;;;;;;21.70;99.90;;;;;;5082195;28;19939;-63
2022/09/08 13:36:38;;;;;;;;;;;21.60;99.90;;;;;;5076349;28;20007;-63
2022/09/08 13:39:08;;;;;;;;;;;21.50;99.90;;;;;;5085460;28;19935;-61
2022/09/08 13:41:36;;;;;;;;;;;21.40;99.90;;;;;;5084441;28;19924;-62
2022/09/08 13:44:17;;;;;;;;;;;21.30;99.90;;;;;;5081935;28;19928;-62
2022/09/08 13:47:15;;;;;;;;;;;21.20;99.90;;;;;;5070968;28;19939;-60
2022/09/08 13:49:48;;;;;;;;;;;21.10;99.90;;;;;;5078934;28;20464;-61
2022/09/08 13:52:39;;;;;;;;;;;21.10;99.90;;;;;;5074097;28;20345;-61
2022/09/08 13:55:28;;;;;;;;;;;21.10;99.90;;;;;;5078586;28;19932;-61
2022/09/08 13:58:14;;;;;;;;;;;21.10;99.90;;;;;;5076130;28;19931;-62
2022/09/08 14:00:58;;;;;;;;;;;21.00;99.90;;;;;;5076237;28;19931;-61
2022/09/08 14:03:28;;;;;;;;;;;21.00;99.90;;;;;;5070925;28;19933;-61
2022/09/08 14:05:57;;;;;;;;;;;20.90;99.90;;;;;;5085436;28;20298;-63
2022/09/08 14:08:32;;;;;;;;;;;21.00;99.90;;;;;;5090682;28;19925;-62
2022/09/08 14:11:19;;;;;;;;;;;21.00;99.90;;;;;;5083909;28;20272;-62
2022/09/08 14:13:47;;;;;;;;;;;21.00;99.90;;;;;;5091341;28;19931;-60
2022/09/08 14:16:17;;;;;;;;;;;21.00;99.90;;;;;;5080005;28;19928;-63
2022/09/08 14:19:04;;;;;;;;;;;21.00;99.90;;;;;;5096418;28;19935;-62
2022/09/08 14:21:46;;;;;;;;;;;21.00;99.90;;;;;;5101773;28;19924;-61
2022/09/08 14:24:25;;;;;;;;;;;21.00;99.90;;;;;;5082614;28;19935;-61
2022/09/08 14:26:52;;;;;;;;;;;21.00;99.90;;;;;;5106821;28;19935;-61
2022/09/08 14:29:43;;;;;;;;;;;20.90;99.90;;;;;;5106215;28;19923;-60
2022/09/08 14:32:13;;;;;;;;;;;20.80;99.90;;;;;;5098022;28;19927;-60
2022/09/08 14:34:57;;;;;;;;;;;20.60;99.90;;;;;;5087295;28;20398;-60
2022/09/08 14:37:28;;;;;;;;;;;20.40;99.90;;;;;;5108627;27;19923;-60
2022/09/08 14:40:12;;;;;;;;;;;20.20;99.90;;;;;;5075295;28;19932;-62
2022/09/08 14:42:40;;;;;;;;;;;19.90;99.90;;;;;;5102941;28;20298;-60
2022/09/08 14:45:26;;;;;;;;;;;19.70;99.90;;;;;;5098839;28;19927;-61
2022/09/08 14:47:54;;;;;;;;;;;19.50;99.90;;;;;;5103378;28;19935;-61
2022/09/08 14:50:24;;;;;;;;;;;19.30;99.90;;;;;;5103702;28;20428;-62
2022/09/08 14:52:55;;;;;;;;;;;19.20;99.90;;;;;;5107942;27;19931;-61
2022/09/08 14:55:25;;;;;;;;;;;19.00;99.90;;;;;;5073793;28;19924;-63
2022/09/08 14:58:06;;;;;;;;;;;18.90;99.90;;;;;;5083419;28;19968;-61